Overview Statistics Trail Chart Weather Telemetry Raw packets
 

This is the latest recevied weather packets stored in our database for station/object K3RUP-1. If no packets are shown the sender has not sent any weather packets the latest 10 day(s).

<< 102 103 104 105 106 107 108 >>
Time Temp. Humidity Pressure Rain* Wind** Luminosity Snow
1787923510 25° C 92% 1015.5 hPa 0 mm - 92 W/m² -
1787923206 25° C 92% 1015.5 hPa 0 mm - 62 W/m² -
1787922901 25° C 93% 1015.2 hPa 0 mm - 78 W/m² -
1787922600 25° C 93% 1015.1 hPa 0 mm - 102 W/m² -
1787922299 25° C 93% 1015.1 hPa 0 mm - 94 W/m² -
1787921995 25° C 94% 1015 hPa 0 mm - 99 W/m² -
1787921691 24.44° C 95% 1014.6 hPa 0 mm - 126 W/m² -
1787921385 24.44° C 95% 1014.8 hPa 0 mm - 89 W/m² -
1787921081 24.44° C 96% 1015 hPa 0 mm - 48 W/m² -
1787920781 24.44° C 96% 1014.8 hPa 0 mm - 51 W/m² -
1787920481 24.44° C 96% 1014.7 hPa 0 mm - 60 W/m² -
1787920178 23.89° C 97% 1014.5 hPa 0 mm - 63 W/m² -
1787919873 23.89° C 97% 1014.5 hPa 0 mm - 56 W/m² -
1787919571 23.89° C 97% 1014.5 hPa 0 mm - 56 W/m² -
1787919268 23.89° C 98% 1014.2 hPa 0 mm - 51 W/m² -
1787918963 23.89° C 98% 1014.6 hPa 0 mm - 48 W/m² -
1787918658 23.89° C 98% 1014.5 hPa 0 mm - 54 W/m² -
1787918355 23.89° C 99% 1014.6 hPa 0 mm - 51 W/m² -
1787918050 23.89° C 99% 1014.3 hPa 0 mm - 38 W/m² -
1787917745 23.89° C 99% 1014.5 hPa 0 mm - 36 W/m² -
1787917441 23.89° C 99% 1014.2 hPa 0 mm - 37 W/m² -
1787917136 23.89° C 99% 1014.2 hPa 0 mm - 20 W/m² -
1787916831 23.89° C 99% 1014 hPa 0 mm - 24 W/m² -
1787916531 23.89° C 99% 1014.1 hPa 0 mm - 20 W/m² -
1787916230 23.89° C 99% 1014.1 hPa 0 mm - 11 W/m² -

* Rain latest hour (hover to see other rain measurements)
** Current wind speed in m/s (hover to see current wind gust speed)